Coventry, Rhode Island
Current Conditions -  °F | °C
As of 11:15 AM on Monday 24 Nov 2014 (Local Time) from KPVD Reporting Station
Light Rain Light Rain  
Wind Chill: 65°   Ceiling: 1200
Heat Index: 65°   Visibility: 2mi
Dew Point: 62°   Wind: 22mph
Humidity: 90%   Direction: 210°SSW
Pressure: 29.71"   Gusts: 40mph
Location:  41.69°N, 71.57°W
Report Text: KPVD 241615Z 21019G35KT 2SM R05/4500VP6000FT -RA BR OVC012 18/17 A2971 RMK AO2 PK WND 19035/1610 SFC VIS 2 1/2 P0005 T01830167
Loading
Personal Weather Stations






























Interactive Weather Map New forecast layout! Learn more

10-Day Weather Forecast

Advertisements
Track Severe Weather on mobile